Airfield :
LOGIN :

Register | Disclaimer

   EN    FR    IT 

 










Legend :    VFR   Marginal VFR   IFR   Intensive IFR   Very Intensive IFR
Visi :
Ceiling :
>= 8 km
>= 3000ft
5 to 8 km
1000 to 3000 ft
1500m to 5 km
500 to 1000 ft
800 to 1500m
200 to 500 ft
< 800m
< 200 ft
Symbols :   Thunderstorms  Fog  Heavy snow  Heavy precipitations  Wind > 20 kt
SIGMETs :     Misc.  Thunderstorms  Icing  Turbulence  Mountain Waves  Volcanic Ashes






- Airport Elevation : 598 ft
- IATA code : BQH


EGKB - Biggin Hill

CURRENT METAR :
  • 271750Z 30013KT 260V330 9999 FEW045 05/M04 Q1009

EXPIRED METARs :
  • 271720Z 30012KT 9999 FEW045 05/M03 Q1008
  • 271650Z 31018KT 280V340 9999 FEW045 05/M03 Q1007
  • 271620Z 31013G23KT 280V340 9999 FEW045 05/M02 Q1006
  • 271550Z 30019G32KT 9999 FEW040 05/M04 Q1005
  • 271520Z 32017KT 280V350 9999 SCT040 06/M02 Q1004

TAF TAF EGKB
Valid from the 27 at 18:00 until the 27 at 23:00 UTC


271707Z 2718/2723 31018G30KT 9999 FEW035
BECMG 2718/2721 28008KT



MET'MAP, your aeronautical weather chart ! - Copyright ORBIFLY December 2007 - Disclaimer

ORBIFLY MET'MAP TEAM :

Programming & Development : Alexandra Zaïnal
Concept & original design : Baudouin d'Aumeries
Assistance for programming : Marc-Olivier Méhu
Technical & hardware support : Manuel Goepfert

Contact : metmap@orbifly.com




SOURCES & CREDITS :

   NOAA